Time;durP1;ratioP1;P1;durP2;ratioP2;P2;SDS_P1;SDS_P2;PMS_P1;PMS_P2;Temp;Humidity;BMP_temperature;BMP_pressure;BME280_temperature;BME280_humidity;BME280_pressure;Samples;Min_cycle;Max_cycle;Signal;HPM_P1;HPM_P2
2021/12/24 00:01:05;;;;;;;19.10;8.73;;;9.10;99.90;;;;;;5006481;28;20053;-77
2021/12/24 00:03:33;;;;;;;15.10;6.30;;;9.10;99.90;;;;;;4993587;28;20118;-79
2021/12/24 00:06:02;;;;;;;13.53;6.50;;;9.10;99.90;;;;;;4989253;28;20037;-77
2021/12/24 00:08:27;;;;;;;15.67;7.30;;;9.10;99.90;;;;;;5006113;28;20031;-78
2021/12/24 00:11:01;;;;;;;18.47;7.90;;;9.10;99.90;;;;;;4989500;28;20026;-76
2021/12/24 00:13:29;;;;;;;18.07;8.93;;;9.00;99.90;;;;;;5005068;28;20124;-78
2021/12/24 00:16:07;;;;;;;15.60;7.83;;;9.00;99.90;;;;;;4990466;28;20058;-78
2021/12/24 00:37:25;;;;;;;13.90;6.20;;;8.90;99.90;;;;;;4989228;28;20103;-78
2021/12/24 00:40:08;;;;;;;15.20;8.13;;;8.90;99.90;;;;;;5004359;28;20030;-79
2021/12/24 00:42:34;;;;;;;14.60;7.10;;;8.90;99.90;;;;;;4988702;28;20022;-78
2021/12/24 00:44:59;;;;;;;16.43;6.97;;;8.80;99.90;;;;;;5004794;28;20027;-77
2021/12/24 00:47:25;;;;;;;12.57;6.17;;;8.80;99.90;;;;;;5004651;28;20019;-78
2021/12/24 00:49:52;;;;;;;14.77;7.07;;;8.80;99.90;;;;;;4987242;28;20080;-79
2021/12/24 00:52:43;;;;;;;14.37;6.50;;;8.80;99.90;;;;;;4988588;28;20034;-78
2021/12/24 00:55:09;;;;;;;12.33;6.03;;;8.80;99.90;;;;;;4989383;28;20090;-78
2021/12/24 00:57:36;;;;;;;15.50;6.77;;;8.80;99.90;;;;;;5004486;28;20030;-79
2021/12/24 01:00:06;;;;;;;14.83;6.47;;;8.80;99.90;;;;;;5004531;28;20364;-78
2021/12/24 01:02:32;;;;;;;12.00;6.33;;;8.90;99.90;;;;;;4987767;28;20461;-79
2021/12/24 01:05:00;;;;;;;16.37;7.00;;;8.90;99.90;;;;;;4987664;28;20034;-77
2021/12/24 01:07:25;;;;;;;11.80;5.77;;;8.90;99.90;;;;;;4988062;28;20056;-77
2021/12/24 01:09:51;;;;;;;12.20;6.30;;;8.90;99.90;;;;;;5003884;28;20116;-78
2021/12/24 01:12:17;;;;;;;12.80;6.37;;;8.90;99.90;;;;;;5004210;28;20044;-77
2021/12/24 01:14:46;;;;;;;11.27;6.00;;;8.90;99.90;;;;;;4988533;28;20054;-77
2021/12/24 01:19:57;;;;;;;17.27;6.90;;;8.90;99.90;;;;;;4988453;28;20022;-77
2021/12/24 01:25:25;;;;;;;13.80;6.83;;;8.90;99.90;;;;;;4988592;28;20089;-77
2021/12/24 01:38:32;;;;;;;11.40;5.93;;;8.90;99.90;;;;;;4989333;28;20132;-79
2021/12/24 01:43:28;;;;;;;13.80;5.80;;;8.90;99.90;;;;;;4988606;28;20821;-78
2021/12/24 01:45:57;;;;;;;14.17;5.97;;;8.90;99.90;;;;;;5006661;28;20367;-76
2021/12/24 01:48:25;;;;;;;14.10;6.30;;;8.90;99.90;;;;;;5003631;28;20117;-78
2021/12/24 01:50:53;;;;;;;12.47;7.07;;;9.00;99.90;;;;;;4987839;28;20038;-76
2021/12/24 01:53:21;;;;;;;8.43;5.10;;;9.00;99.90;;;;;;4989156;28;20026;-77
2021/12/24 01:55:48;;;;;;;13.63;6.27;;;9.00;99.90;;;;;;5007643;28;20084;-78
2021/12/24 01:58:22;;;;;;;9.17;5.33;;;9.00;99.90;;;;;;5009499;28;20064;-79
2021/12/24 02:00:52;;;;;;;9.37;4.63;;;9.00;99.90;;;;;;5004535;28;20027;-77
2021/12/24 02:03:18;;;;;;;11.90;6.73;;;9.10;99.90;;;;;;4987046;28;20061;-79
2021/12/24 02:05:45;;;;;;;14.43;4.53;;;9.10;99.90;;;;;;5004108;28;20040;-77
2021/12/24 02:08:12;;;;;;;9.83;4.80;;;9.10;99.90;;;;;;5004048;28;20104;-79
2021/12/24 02:10:38;;;;;;;10.73;5.63;;;9.10;99.90;;;;;;4988322;28;20038;-78
2021/12/24 02:13:04;;;;;;;9.47;5.30;;;9.20;99.90;;;;;;4988832;28;20073;-77
2021/12/24 02:28:39;;;;;;;8.20;4.43;;;9.20;99.90;;;;;;4987977;28;20171;-78
2021/12/24 02:31:17;;;;;;;12.87;4.87;;;;;;;;;;5003525;28;20018;-77
2021/12/24 02:33:45;;;;;;;9.13;4.67;;;9.20;99.90;;;;;;5002887;28;20030;-78
2021/12/24 02:36:11;;;;;;;11.20;4.93;;;9.20;99.90;;;;;;5004586;28;20041;-77
2021/12/24 02:38:38;;;;;;;12.67;5.40;;;9.20;99.90;;;;;;4988423;28;20035;-78
2021/12/24 02:41:05;;;;;;;13.10;4.83;;;9.20;99.90;;;;;;4987717;28;20166;-78
2021/12/24 02:43:31;;;;;;;14.27;5.30;;;9.20;99.90;;;;;;5004312;28;20031;-80
2021/12/24 02:46:06;;;;;;;12.97;5.57;;;9.20;99.90;;;;;;5008274;28;20031;-80
2021/12/24 02:54:01;;;;;;;9.07;4.87;;;9.20;99.90;;;;;;4992674;28;20347;-79
2021/12/24 02:56:33;;;;;;;12.13;5.07;;;9.20;99.90;;;;;;4992015;28;20037;-77
2021/12/24 02:59:03;;;;;;;12.60;5.30;;;9.20;99.90;;;;;;5007646;28;20430;-80
2021/12/24 03:01:34;;;;;;;13.87;5.73;;;;;;;;;;4990728;28;20031;-78
2021/12/24 03:04:02;;;;;;;9.23;5.17;;;9.20;99.90;;;;;;4991160;28;20447;-78
2021/12/24 03:06:33;;;;;;;13.73;5.53;;;9.20;99.90;;;;;;4990790;28;20080;-78
2021/12/24 03:08:59;;;;;;;14.67;6.30;;;9.20;99.90;;;;;;4990629;28;20106;-78
2021/12/24 03:11:25;;;;;;;11.70;5.57;;;9.20;99.90;;;;;;4991584;28;20101;-78
2021/12/24 03:13:55;;;;;;;12.50;5.47;;;9.20;99.90;;;;;;5007496;28;20716;-78
2021/12/24 03:16:21;;;;;;;13.77;6.53;;;9.20;99.90;;;;;;4991395;28;20030;-77
2021/12/24 03:18:48;;;;;;;12.93;6.37;;;9.20;99.90;;;;;;4990562;28;20045;-78
2021/12/24 03:21:19;;;;;;;14.57;5.77;;;;;;;;;;5006583;28;20034;-79
2021/12/24 03:26:40;;;;;;;15.10;5.80;;;9.20;99.90;;;;;;4991646;28;20022;-78
2021/12/24 03:29:08;;;;;;;13.77;6.00;;;9.20;99.90;;;;;;4991070;28;20097;-76
2021/12/24 03:31:37;;;;;;;11.90;6.10;;;9.20;99.90;;;;;;5006370;28;20026;-79
2021/12/24 03:34:04;;;;;;;10.77;5.37;;;9.20;99.90;;;;;;5006324;28;20042;-77
2021/12/24 03:36:29;;;;;;;9.30;5.90;;;9.10;99.90;;;;;;4988936;28;20034;-80
2021/12/24 03:38:55;;;;;;;15.20;6.50;;;9.10;99.90;;;;;;5006689;28;20434;-77
2021/12/24 03:41:21;;;;;;;13.87;6.73;;;9.10;99.90;;;;;;4990379;28;21751;-77
2021/12/24 03:43:47;;;;;;;20.10;7.63;;;;;;;;;;4990591;28;20026;-76
2021/12/24 03:46:17;;;;;;;13.87;6.87;;;9.00;99.90;;;;;;5006804;28;20018;-78
2021/12/24 03:48:51;;;;;;;15.30;5.77;;;9.00;99.90;;;;;;4991098;28;20100;-78
2021/12/24 03:56:42;;;;;;;15.43;7.07;;;9.00;99.90;;;;;;4991421;28;20606;-76
2021/12/24 03:59:08;;;;;;;10.83;6.40;;;9.00;99.90;;;;;;4990198;28;20026;-77
2021/12/24 04:01:36;;;;;;;15.70;6.43;;;8.90;99.90;;;;;;5005277;28;20041;-77
2021/12/24 04:04:03;;;;;;;15.27;6.60;;;8.90;99.90;;;;;;4990134;28;20034;-77
2021/12/24 04:06:32;;;;;;;16.13;6.70;;;9.00;99.90;;;;;;5006992;28;20121;-77
2021/12/24 04:08:58;;;;;;;13.57;6.77;;;8.90;99.90;;;;;;4989151;28;20112;-78
2021/12/24 04:11:23;;;;;;;11.17;5.27;;;9.00;99.90;;;;;;5005252;28;20030;-77
2021/12/24 04:13:52;;;;;;;15.17;6.80;;;9.00;99.90;;;;;;5005743;28;20038;-77
2021/12/24 04:16:18;;;;;;;15.17;7.47;;;;;;;;;;5010323;28;20038;-77
2021/12/24 04:18:54;;;;;;;13.07;6.47;;;9.00;99.90;;;;;;4991508;28;20030;-76
2021/12/24 04:26:48;;;;;;;11.83;6.10;;;9.00;99.90;;;;;;4990276;28;20065;-77
2021/12/24 04:29:14;;;;;;;12.57;7.13;;;9.00;99.90;;;;;;5006392;28;20038;-78
2021/12/24 04:31:46;;;;;;;14.67;7.10;;;9.10;99.90;;;;;;5006494;28;20022;-77
2021/12/24 04:34:13;;;;;;;14.50;6.40;;;9.10;99.90;;;;;;4990530;28;20030;-77
2021/12/24 05:01:46;;;;;;;18.23;6.83;;;9.30;99.90;;;;;;4989924;28;20053;-77
2021/12/24 05:04:15;;;;;;;17.13;5.57;;;9.30;99.90;;;;;;5005302;28;20430;-77
2021/12/24 05:06:51;;;;;;;9.50;5.73;;;9.30;99.90;;;;;;5004501;28;20041;-77
2021/12/24 05:09:23;;;;;;;14.87;5.50;;;9.40;99.90;;;;;;5004828;28;20030;-78
2021/12/24 05:11:49;;;;;;;17.40;6.60;;;9.40;99.90;;;;;;4987904;28;20046;-77
2021/12/24 05:14:15;;;;;;;15.03;6.77;;;9.40;99.90;;;;;;4993664;28;20072;-77
2021/12/24 05:16:50;;;;;;;11.63;6.00;;;9.40;99.90;;;;;;4989398;28;20085;-76
2021/12/24 05:21:48;;;;;;;10.07;5.17;;;9.30;99.90;;;;;;4989370;28;20092;-77
2021/12/24 05:24:21;;;;;;;15.53;6.03;;;9.30;99.90;;;;;;4989337;28;20046;-77
2021/12/24 05:26:54;;;;;;;11.07;5.70;;;9.30;99.90;;;;;;4987466;28;20064;-77
2021/12/24 05:29:20;;;;;;;13.00;6.13;;;9.30;99.90;;;;;;4988980;28;20030;-76
2021/12/24 05:31:46;;;;;;;15.87;6.43;;;9.40;99.90;;;;;;4988959;28;20023;-78
2021/12/24 05:34:18;;;;;;;19.03;5.53;;;9.30;99.90;;;;;;5005137;28;20050;-76
2021/12/24 05:36:46;;;;;;;15.90;6.80;;;9.30;99.90;;;;;;5004178;28;20049;-77
2021/12/24 05:39:12;;;;;;;11.37;5.30;;;9.40;99.90;;;;;;4989163;28;20044;-76
2021/12/24 05:41:39;;;;;;;16.43;5.60;;;9.40;99.90;;;;;;4989110;28;20119;-76
2021/12/24 05:44:06;;;;;;;12.93;6.07;;;9.30;99.90;;;;;;5004915;28;20026;-77
2021/12/24 05:46:31;;;;;;;12.43;6.80;;;9.30;99.90;;;;;;5003840;28;20264;-78
2021/12/24 05:48:57;;;;;;;12.07;6.80;;;9.30;99.90;;;;;;5003689;28;20026;-77
2021/12/24 05:51:23;;;;;;;17.63;6.13;;;9.30;99.90;;;;;;5004056;28;20289;-78
2021/12/24 05:53:48;;;;;;;14.17;5.67;;;9.30;99.90;;;;;;5004644;28;20054;-77
2021/12/24 05:56:14;;;;;;;13.03;6.37;;;9.30;99.90;;;;;;5003993;28;20117;-78
2021/12/24 05:58:40;;;;;;;16.23;6.10;;;9.40;99.90;;;;;;4988484;28;20513;-77
2021/12/24 06:01:06;;;;;;;14.07;5.87;;;9.40;99.90;;;;;;4988707;28;20034;-77
2021/12/24 06:03:31;;;;;;;11.10;6.17;;;9.40;99.90;;;;;;5004171;28;20030;-76
2021/12/24 06:05:57;;;;;;;16.13;6.43;;;9.40;99.90;;;;;;5003755;28;20537;-77
2021/12/24 06:08:23;;;;;;;12.53;5.60;;;9.40;99.90;;;;;;5003796;28;20031;-76
2021/12/24 06:10:48;;;;;;;12.40;5.53;;;9.30;99.90;;;;;;5005408;28;20022;-78
2021/12/24 06:13:16;;;;;;;14.23;5.57;;;9.30;99.90;;;;;;4989872;28;20028;-77
2021/12/24 06:15:45;;;;;;;14.20;5.97;;;9.40;99.90;;;;;;5003936;28;20056;-77
2021/12/24 06:18:19;;;;;;;14.03;5.80;;;9.30;99.90;;;;;;5005503;28;20038;-78
2021/12/24 06:20:45;;;;;;;13.87;5.80;;;9.30;99.90;;;;;;4992111;28;20598;-77
2021/12/24 06:23:14;;;;;;;12.23;6.70;;;9.30;99.90;;;;;;5008403;28;20045;-77
2021/12/24 06:25:40;;;;;;;10.20;6.20;;;9.40;99.90;;;;;;5008298;28;20026;-77
2021/12/24 06:28:05;;;;;;;20.07;6.63;;;9.40;99.90;;;;;;5008661;28;20018;-78
2021/12/24 06:30:31;;;;;;;19.23;6.03;;;9.30;99.90;;;;;;4993063;28;20030;-78
2021/12/24 06:32:59;;;;;;;14.87;5.77;;;9.30;99.90;;;;;;5008301;28;20050;-76
2021/12/24 06:35:25;;;;;;;14.17;5.97;;;9.40;99.90;;;;;;4991349;28;20026;-77
2021/12/24 06:37:56;;;;;;;14.67;5.63;;;9.30;99.90;;;;;;5006675;28;20446;-77
2021/12/24 06:40:23;;;;;;;12.73;5.90;;;9.30;99.90;;;;;;4992901;28;20069;-77
2021/12/24 06:42:48;;;;;;;15.33;5.87;;;9.30;99.90;;;;;;4991837;28;20030;-77
2021/12/24 06:45:19;;;;;;;12.20;5.67;;;9.30;99.90;;;;;;4992660;28;20375;-76
2021/12/24 06:47:45;;;;;;;22.07;5.93;;;9.30;99.90;;;;;;4991958;28;20087;-77
2021/12/24 06:50:11;;;;;;;13.23;5.87;;;9.30;99.90;;;;;;5012433;28;20048;-79
2021/12/24 06:52:36;;;;;;;15.90;5.93;;;9.20;99.90;;;;;;4991747;28;20522;-75
2021/12/24 06:55:05;;;;;;;13.57;6.60;;;9.20;99.90;;;;;;5007599;28;20023;-78
2021/12/24 06:57:31;;;;;;;10.37;5.40;;;9.30;99.90;;;;;;4991623;28;20281;-75
2021/12/24 06:59:56;;;;;;;16.20;6.47;;;9.30;99.90;;;;;;4992790;28;20030;-78
2021/12/24 07:02:22;;;;;;;13.27;5.47;;;9.20;99.90;;;;;;4992163;28;20030;-77
2021/12/24 07:04:47;;;;;;;12.50;5.73;;;9.30;99.90;;;;;;5006947;28;20065;-77
2021/12/24 07:07:13;;;;;;;10.50;6.23;;;9.30;99.90;;;;;;5007192;28;20022;-77
2021/12/24 07:09:42;;;;;;;12.10;6.00;;;9.30;99.90;;;;;;5007307;28;20384;-77
2021/12/24 07:12:13;;;;;;;23.93;6.40;;;9.30;99.90;;;;;;4992609;28;20030;-77
2021/12/24 07:14:40;;;;;;;18.17;6.03;;;9.30;99.90;;;;;;5007137;28;20061;-76
2021/12/24 07:17:06;;;;;;;20.10;6.60;;;9.30;99.90;;;;;;4991207;28;20479;-78
2021/12/24 07:19:32;;;;;;;13.60;5.70;;;9.30;99.90;;;;;;5006802;28;20045;-77
2021/12/24 07:21:57;;;;;;;9.60;5.57;;;9.30;99.90;;;;;;5006795;28;20038;-77
2021/12/24 07:24:23;;;;;;;15.10;6.30;;;9.30;99.90;;;;;;4990874;28;20084;-77
2021/12/24 07:26:48;;;;;;;15.27;5.87;;;9.30;99.90;;;;;;5008045;28;20383;-79
2021/12/24 07:29:14;;;;;;;16.87;6.17;;;9.30;99.90;;;;;;5006650;28;20027;-76
2021/12/24 07:31:40;;;;;;;15.97;7.17;;;9.30;99.90;;;;;;5008327;28;20340;-79
2021/12/24 07:34:08;;;;;;;14.93;5.47;;;9.30;99.90;;;;;;4991864;28;20049;-77
2021/12/24 07:36:33;;;;;;;15.43;5.83;;;9.20;99.90;;;;;;5008300;28;20090;-76
2021/12/24 07:38:59;;;;;;;13.63;5.50;;;9.20;99.90;;;;;;5008179;28;20117;-77
2021/12/24 07:41:25;;;;;;;18.60;6.27;;;9.20;99.90;;;;;;4992866;28;20061;-78
2021/12/24 07:43:51;;;;;;;19.80;6.60;;;9.20;99.90;;;;;;5008330;28;20054;-79
2021/12/24 07:46:17;;;;;;;16.03;6.43;;;9.10;99.90;;;;;;5009155;28;20027;-76
2021/12/24 07:48:49;;;;;;;18.27;6.17;;;9.10;99.90;;;;;;4992354;28;20074;-77
2021/12/24 07:54:03;;;;;;;23.67;6.87;;;9.00;99.90;;;;;;4994347;28;20056;-76
2021/12/24 07:56:31;;;;;;;15.67;7.10;;;9.00;99.90;;;;;;4992069;28;20044;-78
2021/12/24 07:58:57;;;;;;;15.33;6.17;;;9.00;99.90;;;;;;4990865;28;20033;-76
2021/12/24 08:01:25;;;;;;;21.73;8.17;;;8.90;99.90;;;;;;4993663;28;20034;-76
2021/12/24 08:03:52;;;;;;;17.77;6.63;;;8.90;99.90;;;;;;5007635;28;20030;-77
2021/12/24 08:06:23;;;;;;;14.93;6.10;;;8.90;99.90;;;;;;4991426;28;20084;-78
2021/12/24 08:08:51;;;;;;;12.77;6.67;;;8.90;99.90;;;;;;5007362;28;20430;-76
2021/12/24 08:11:19;;;;;;;13.57;6.07;;;8.80;99.90;;;;;;5006533;28;20034;-76
2021/12/24 08:13:44;;;;;;;14.80;7.87;;;8.90;99.90;;;;;;4992169;28;20034;-77
2021/12/24 08:16:13;;;;;;;13.87;6.63;;;8.90;99.90;;;;;;4990862;28;20038;-76
2021/12/24 08:18:39;;;;;;;20.80;6.17;;;8.90;99.90;;;;;;5006348;28;20064;-76
2021/12/24 08:21:07;;;;;;;18.90;6.47;;;8.90;99.90;;;;;;5005686;28;20420;-76
2021/12/24 08:23:33;;;;;;;13.70;5.40;;;8.90;99.90;;;;;;5011886;28;20049;-75
2021/12/24 08:25:58;;;;;;;14.47;6.30;;;9.00;99.90;;;;;;5007343;28;20042;-77
2021/12/24 08:28:25;;;;;;;14.53;5.30;;;9.00;99.90;;;;;;5005923;28;20061;-76
2021/12/24 08:30:51;;;;;;;14.63;5.90;;;9.00;99.90;;;;;;5010018;28;20312;-77
2021/12/24 08:33:16;;;;;;;13.00;6.10;;;9.10;99.90;;;;;;4991961;28;20655;-78
2021/12/24 08:35:42;;;;;;;13.77;5.13;;;9.10;99.90;;;;;;5006166;28;20038;-78
2021/12/24 08:38:08;;;;;;;16.97;5.40;;;9.10;99.90;;;;;;4990856;28;20045;-77
2021/12/24 08:40:34;;;;;;;15.47;5.37;;;9.10;99.90;;;;;;4989819;28;20026;-76
2021/12/24 08:43:00;;;;;;;18.03;6.70;;;9.20;99.90;;;;;;5005755;28;20044;-76
2021/12/24 08:45:26;;;;;;;8.57;4.63;;;9.20;99.90;;;;;;5005352;28;20164;-77
2021/12/24 08:47:52;;;;;;;17.73;4.90;;;9.30;99.90;;;;;;5005561;28;20447;-77
2021/12/24 08:50:17;;;;;;;16.33;5.20;;;9.30;99.90;;;;;;4990865;28;20097;-77
2021/12/24 08:52:44;;;;;;;18.20;4.77;;;9.30;99.90;;;;;;4989317;28;20026;-76
2021/12/24 08:55:15;;;;;;;12.10;4.97;;;9.30;99.90;;;;;;4989608;28;20459;-76
2021/12/24 08:57:42;;;;;;;14.57;4.93;;;9.30;99.90;;;;;;5005438;28;20022;-77
2021/12/24 09:00:10;;;;;;;13.87;4.90;;;9.30;99.90;;;;;;4991392;28;20033;-76
2021/12/24 09:02:37;;;;;;;11.03;4.00;;;9.40;99.90;;;;;;5005445;28;20042;-75
2021/12/24 09:05:10;;;;;;;9.83;4.00;;;9.40;99.90;;;;;;4989739;28;20026;-76
2021/12/24 09:07:35;;;;;;;;;;;9.40;99.90;;;;;;4991000;28;20033;-78
2021/12/24 09:10:02;;;;;;;13.30;4.10;;;9.50;99.90;;;;;;4990226;28;20574;-75
2021/12/24 09:12:28;;;;;;;13.63;5.73;;;9.50;99.90;;;;;;5003596;28;20050;-77
2021/12/24 09:14:56;;;;;;;11.20;4.30;;;9.50;99.90;;;;;;4990387;28;20030;-79
2021/12/24 09:17:22;;;;;;;9.63;3.97;;;9.60;99.90;;;;;;5006119;28;20422;-76
2021/12/24 09:19:50;;;;;;;13.47;4.07;;;9.60;99.90;;;;;;5006671;28;20416;-75
2021/12/24 09:22:18;;;;;;;14.77;4.00;;;9.70;99.90;;;;;;4987205;28;20069;-76
2021/12/24 09:24:49;;;;;;;9.77;3.77;;;9.70;99.90;;;;;;5004928;28;20045;-77
2021/12/24 09:27:15;;;;;;;14.57;4.57;;;9.70;99.90;;;;;;5007472;28;20040;-78
2021/12/24 09:29:43;;;;;;;10.03;4.47;;;9.80;99.90;;;;;;5007083;28;20094;-77
2021/12/24 09:32:09;;;;;;;8.90;3.80;;;9.80;99.90;;;;;;4991193;28;20088;-77
2021/12/24 09:34:35;;;;;;;16.47;5.17;;;9.80;99.90;;;;;;5005554;28;20049;-77
2021/12/24 09:37:03;;;;;;;10.40;4.27;;;9.80;99.90;;;;;;5005597;28;21494;-76
2021/12/24 09:39:29;;;;;;;10.57;4.27;;;9.80;99.90;;;;;;5006105;28;20467;-76
2021/12/24 09:41:55;;;;;;;11.47;4.37;;;9.80;99.90;;;;;;4989832;28;20037;-76
2021/12/24 09:44:20;;;;;;;12.07;4.47;;;9.80;99.90;;;;;;5006410;28;20026;-76
2021/12/24 09:46:46;;;;;;;14.47;6.27;;;9.80;99.90;;;;;;4987211;28;20036;-77
2021/12/24 09:49:14;;;;;;;10.87;4.33;;;9.80;99.90;;;;;;4988977;28;20088;-75
2021/12/24 09:51:44;;;;;;;17.53;5.27;;;9.70;99.90;;;;;;4987356;28;20043;-75
2021/12/24 09:54:16;;;;;;;10.07;4.57;;;9.70;99.90;;;;;;5003450;28;20117;-77
2021/12/24 09:56:43;;;;;;;17.88;4.75;;;9.70;99.90;;;;;;4988189;28;20049;-75
2021/12/24 09:59:09;;;;;;;15.23;4.83;;;9.70;99.90;;;;;;4988599;28;20081;-77
2021/12/24 10:01:37;;;;;;;11.33;4.73;;;9.60;99.90;;;;;;5009367;28;20041;-79
2021/12/24 10:04:11;;;;;;;16.47;4.43;;;9.60;99.90;;;;;;4987693;28;20038;-77
2021/12/24 10:06:37;;;;;;;15.70;5.07;;;9.60;99.90;;;;;;5012462;28;20682;-75
2021/12/24 10:09:11;;;;;;;15.73;5.37;;;9.60;99.90;;;;;;5014130;28;20922;-76
2021/12/24 10:11:47;;;;;;;17.80;4.57;;;9.70;99.90;;;;;;4990582;28;20042;-77
2021/12/24 10:14:13;;;;;;;15.03;4.17;;;9.70;99.90;;;;;;4990099;28;20077;-76
2021/12/24 10:16:44;;;;;;;10.90;3.93;;;9.70;99.90;;;;;;4990035;28;20180;-76
2021/12/24 10:19:09;;;;;;;12.37;4.33;;;9.70;99.90;;;;;;4989092;28;20042;-78
2021/12/24 10:21:37;;;;;;;22.13;5.13;;;9.80;99.90;;;;;;5007484;28;20046;-77
2021/12/24 10:24:06;;;;;;;28.23;5.00;;;9.90;99.90;;;;;;5007445;28;20088;-77
2021/12/24 10:26:34;;;;;;;13.00;5.60;;;9.90;99.90;;;;;;4989077;28;20031;-76
2021/12/24 10:29:19;;;;;;;14.90;4.63;;;10.00;99.90;;;;;;4991189;28;20030;-78
2021/12/24 10:31:54;;;;;;;21.53;6.43;;;10.10;99.90;;;;;;4990646;28;20026;-77
2021/12/24 10:34:30;;;;;;;16.33;3.97;;;10.10;99.90;;;;;;4988947;28;20048;-77
2021/12/24 10:37:07;;;;;;;8.73;4.00;;;10.20;99.90;;;;;;5005665;28;20054;-77
2021/12/24 10:39:56;;;;;;;14.47;5.33;;;10.20;99.90;;;;;;5010123;28;20065;-77
2021/12/24 10:42:37;;;;;;;15.10;4.83;;;10.40;99.90;;;;;;4991673;28;20069;-78
2021/12/24 10:45:13;;;;;;;21.03;5.13;;;10.40;99.90;;;;;;5014833;28;20023;-76
2021/12/24 10:47:40;;;;;;;10.37;4.00;;;10.40;99.90;;;;;;5005127;28;20030;-77
2021/12/24 10:50:37;;;;;;;12.50;4.07;;;10.40;99.90;;;;;;5004595;28;20455;-78
2021/12/24 10:53:19;;;;;;;10.90;4.80;;;10.50;99.90;;;;;;4992523;28;20026;-73
2021/12/24 10:55:48;;;;;;;12.27;3.15;;;10.50;99.90;;;;;;4998264;28;21453;-80
2021/12/24 10:58:17;;;;;;;11.83;3.70;;;10.50;99.90;;;;;;5002891;28;20050;-77
2021/12/24 11:00:50;;;;;;;15.43;4.70;;;10.40;99.90;;;;;;5003757;28;20038;-76
2021/12/24 11:03:22;;;;;;;11.13;4.83;;;10.40;99.90;;;;;;5002171;28;20460;-76
2021/12/24 11:06:06;;;;;;;12.35;3.28;;;10.40;99.90;;;;;;4995113;28;20034;-76
2021/12/24 11:08:32;;;;;;;24.07;5.33;;;10.30;99.90;;;;;;4995855;28;20041;-79
2021/12/24 11:11:00;;;;;;;9.73;3.70;;;10.40;99.90;;;;;;4997152;28;20022;-77
2021/12/24 11:13:37;;;;;;;10.60;3.60;;;10.40;99.90;;;;;;4998049;28;20037;-79
2021/12/24 11:16:05;;;;;;;11.53;3.43;;;10.40;99.90;;;;;;4995026;28;20207;-78
2021/12/24 11:18:38;;;;;;;8.40;3.40;;;10.40;99.90;;;;;;5014724;28;20045;-79
2021/12/24 11:21:06;;;;;;;16.03;4.10;;;10.40;99.90;;;;;;4994612;28;20068;-78
2021/12/24 11:23:34;;;;;;;18.57;3.50;;;10.50;99.90;;;;;;4994089;28;20035;-77
2021/12/24 11:26:03;;;;;;;5.97;2.97;;;10.60;99.90;;;;;;5011035;28;20096;-77
2021/12/24 11:28:32;;;;;;;13.87;4.03;;;10.60;99.90;;;;;;5010289;28;20329;-78
2021/12/24 11:31:21;;;;;;;8.73;3.83;;;10.50;99.90;;;;;;4994461;28;20026;-78
2021/12/24 11:33:49;;;;;;;19.43;3.97;;;10.40;99.90;;;;;;4955299;29;20523;-78
2021/12/24 11:36:17;;;;;;;10.23;3.10;;;10.30;99.90;;;;;;4954571;29;20027;-79
2021/12/24 11:38:43;;;;;;;14.57;3.83;;;10.30;99.90;;;;;;4940298;29;20041;-79
2021/12/24 11:41:12;;;;;;;12.73;3.77;;;10.20;99.90;;;;;;4953907;29;20130;-78
2021/12/24 11:43:47;;;;;;;12.47;4.87;;;10.20;99.90;;;;;;4938808;29;20035;-77
2021/12/24 11:46:16;;;;;;;16.13;4.03;;;10.30;99.90;;;;;;4955468;29;20054;-80
2021/12/24 11:48:43;;;;;;;10.03;3.23;;;10.40;99.90;;;;;;4937871;29;20039;-78
2021/12/24 11:51:13;;;;;;;8.23;2.90;;;10.50;99.90;;;;;;4955304;29;20023;-77
2021/12/24 11:53:40;;;;;;;7.27;3.13;;;10.50;99.90;;;;;;4954417;29;20046;-79
2021/12/24 11:56:09;;;;;;;11.13;3.80;;;10.60;99.90;;;;;;4957974;29;20031;-78
2021/12/24 11:58:52;;;;;;;10.50;3.60;;;10.60;99.90;;;;;;4940658;29;20107;-80
2021/12/24 12:01:18;;;;;;;;;;;10.80;99.90;;;;;;4956309;29;20031;-77
2021/12/24 12:03:49;;;;;;;15.17;3.20;;;10.90;99.90;;;;;;4965572;28;19921;-78
2021/12/24 12:06:23;;;;;;;14.63;4.20;;;11.00;99.90;;;;;;4995001;28;20052;-79
2021/12/24 12:08:54;;;;;;;11.43;2.70;;;11.10;99.90;;;;;;5001600;28;20026;-79
2021/12/24 12:11:25;;;;;;;8.77;2.63;;;11.20;99.90;;;;;;5026054;28;20038;-77
2021/12/24 12:14:01;;;;;;;17.17;2.92;;;11.20;99.90;;;;;;4997580;28;20048;-76
2021/12/24 12:16:40;;;;;;;12.43;4.43;;;11.20;99.90;;;;;;4997509;28;20117;-76
2021/12/24 12:19:22;;;;;;;14.47;3.60;;;11.10;99.90;;;;;;4998811;28;20466;-78
2021/12/24 12:22:32;;;;;;;9.07;2.33;;;11.00;99.90;;;;;;4995791;28;20026;-79
2021/12/24 12:25:03;;;;;;;15.73;3.90;;;10.90;99.90;;;;;;4998315;28;20057;-80
2021/12/24 12:27:41;;;;;;;9.73;3.23;;;10.90;99.90;;;;;;5014529;28;20030;-79
2021/12/24 12:30:24;;;;;;;10.33;3.03;;;10.80;99.90;;;;;;5012217;28;20030;-76
2021/12/24 12:33:17;;;;;;;13.57;3.42;;;10.80;99.90;;;;;;4995163;28;20030;-79
2021/12/24 12:35:49;;;;;;;11.83;3.80;;;10.80;99.90;;;;;;4991273;28;20030;-78
2021/12/24 12:38:44;;;;;;;13.55;3.35;;;10.90;99.90;;;;;;5002401;28;20030;-77
2021/12/24 12:41:22;;;;;;;12.03;4.97;;;10.90;99.90;;;;;;4992045;28;20026;-79
2021/12/24 12:43:50;;;;;;;12.73;3.10;;;11.00;99.90;;;;;;4994633;28;20042;-78
2021/12/24 12:46:21;;;;;;;12.23;3.23;;;11.00;99.90;;;;;;4997301;28;20046;-79
2021/12/24 12:48:51;;;;;;;15.60;2.93;;;11.00;99.90;;;;;;5018337;28;20042;-77
2021/12/24 12:51:19;;;;;;;9.40;2.87;;;10.90;99.90;;;;;;5002501;28;20030;-79
2021/12/24 12:53:45;;;;;;;8.27;2.60;;;10.80;99.90;;;;;;5010456;28;20026;-78
2021/12/24 12:56:26;;;;;;;8.07;2.57;;;10.80;99.90;;;;;;5013295;28;20030;-78
2021/12/24 12:59:01;;;;;;;8.73;2.77;;;10.80;99.90;;;;;;4994559;28;20038;-79
2021/12/24 13:01:27;;;;;;;12.97;3.83;;;10.80;99.90;;;;;;5013817;28;20100;-79
2021/12/24 13:03:56;;;;;;;15.60;3.90;;;10.80;99.90;;;;;;4996992;28;20410;-78
2021/12/24 13:06:41;;;;;;;15.27;3.20;;;10.80;99.90;;;;;;5010693;28;20077;-80
2021/12/24 13:09:21;;;;;;;8.00;2.60;;;10.80;99.90;;;;;;4996734;28;20061;-79
2021/12/24 13:11:52;;;;;;;11.27;3.33;;;10.80;99.90;;;;;;4998091;28;20029;-79
2021/12/24 13:14:20;;;;;;;5.53;2.53;;;10.80;99.90;;;;;;4998875;28;20026;-79
2021/12/24 13:16:52;;;;;;;13.17;3.20;;;10.80;99.90;;;;;;5014784;28;20034;-78
2021/12/24 13:19:28;;;;;;;11.00;4.07;;;10.80;99.90;;;;;;5011231;28;20034;-79
2021/12/24 13:24:53;;;;;;;13.83;3.47;;;10.70;99.90;;;;;;4996024;28;20069;-78
2021/12/24 13:27:25;;;;;;;12.23;3.27;;;10.60;99.90;;;;;;4994481;28;20142;-81
2021/12/24 13:30:11;;;;;;;8.23;3.43;;;10.60;99.90;;;;;;5012997;28;20030;-76
2021/12/24 13:32:45;;;;;;;8.03;2.77;;;10.50;99.90;;;;;;5012632;28;20316;-79
2021/12/24 13:35:13;;;;;;;11.63;2.97;;;10.50;99.90;;;;;;5015585;28;20026;-77
2021/12/24 13:37:45;;;;;;;8.77;2.90;;;10.50;99.90;;;;;;5013536;28;20045;-78
2021/12/24 13:40:12;;;;;;;10.52;2.78;;;10.50;99.90;;;;;;4994292;28;20133;-80
2021/12/24 13:42:48;;;;;;;18.13;3.73;;;10.40;99.90;;;;;;5014477;28;20110;-79
2021/12/24 13:45:14;;;;;;;16.37;4.53;;;10.40;99.90;;;;;;5013487;28;20038;-79
2021/12/24 13:48:02;;;;;;;4.77;2.93;;;10.30;99.90;;;;;;5015742;28;20022;-76
2021/12/24 13:56:36;;;;;;;17.73;5.03;;;10.30;99.90;;;;;;5000949;28;20053;-76
2021/12/24 13:59:03;;;;;;;14.50;3.30;;;10.30;99.90;;;;;;5019578;28;20240;-79
2021/12/24 14:01:30;;;;;;;12.30;3.57;;;10.20;99.90;;;;;;5001309;28;20153;-76
2021/12/24 14:03:58;;;;;;;10.53;4.03;;;10.20;99.90;;;;;;5011853;28;20117;-78
2021/12/24 14:06:38;;;;;;;7.90;3.33;;;10.10;99.90;;;;;;4995310;28;20185;-77
2021/12/24 14:09:16;;;;;;;10.00;3.60;;;10.10;99.90;;;;;;4993853;28;20031;-79
2021/12/24 14:11:43;;;;;;;11.50;4.20;;;10.00;99.90;;;;;;5005263;28;20030;-78
2021/12/24 14:14:20;;;;;;;13.80;3.77;;;10.00;99.90;;;;;;4988762;28;20018;-77
2021/12/24 14:19:16;;;;;;;14.57;4.33;;;10.00;99.90;;;;;;4989057;28;20117;-75
2021/12/24 14:21:50;;;;;;;10.63;3.10;;;10.00;99.90;;;;;;4988390;28;20049;-78
2021/12/24 14:24:34;;;;;;;7.93;3.73;;;10.00;99.90;;;;;;4988629;28;20128;-78
2021/12/24 14:27:12;;;;;;;13.10;4.73;;;10.00;99.90;;;;;;4987898;28;20034;-78
2021/12/24 14:29:44;;;;;;;13.43;3.63;;;9.90;99.90;;;;;;5004452;28;20466;-78
2021/12/24 14:32:11;;;;;;;48.23;15.83;;;9.90;99.90;;;;;;4992010;28;20022;-79
2021/12/24 14:34:45;;;;;;;63.20;21.93;;;10.10;99.90;;;;;;4992210;28;20097;-78
2021/12/24 14:37:33;;;;;;;77.30;23.53;;;10.20;99.90;;;;;;4991962;28;20030;-79
2021/12/24 14:40:08;;;;;;;19.07;6.83;;;10.30;99.90;;;;;;5010546;28;20041;-78
2021/12/24 14:42:37;;;;;;;13.80;4.07;;;10.30;99.90;;;;;;4994440;28;20038;-78
2021/12/24 14:45:23;;;;;;;12.30;5.97;;;10.20;99.90;;;;;;4993437;28;20077;-78
2021/12/24 14:48:06;;;;;;;22.63;5.80;;;10.20;99.90;;;;;;4994727;28;20030;-78
2021/12/24 14:50:44;;;;;;;15.57;4.00;;;10.20;99.90;;;;;;4998293;28;20053;-80
2021/12/24 14:53:20;;;;;;;10.67;3.50;;;10.10;99.90;;;;;;4995949;28;20035;-78